createdAt,value
2023-04-03T00:00:51.573Z,100.00
2023-04-03T00:03:19.574Z,100.00
2023-04-03T00:05:47.076Z,100.00
2023-04-03T00:08:13.706Z,100.00
2023-04-03T00:10:40.449Z,100.00
2023-04-03T00:13:08.219Z,100.00
2023-04-03T00:15:36.592Z,100.00
2023-04-03T00:18:04.069Z,100.00
2023-04-03T00:20:31.017Z,100.00
2023-04-03T00:22:57.811Z,100.00
2023-04-03T00:25:24.777Z,100.00
2023-04-03T00:27:52.532Z,100.00
2023-04-03T00:30:21.864Z,100.00
2023-04-03T00:32:49.892Z,100.00
2023-04-03T00:35:19.300Z,100.00
2023-04-03T00:37:46.771Z,100.00
2023-04-03T00:40:15.395Z,100.00
2023-04-03T00:42:43.404Z,100.00
2023-04-03T00:45:19.206Z,100.00
2023-04-03T00:47:46.112Z,100.00
2023-04-03T00:50:12.772Z,100.00
2023-04-03T00:52:40.279Z,100.00
2023-04-03T00:55:09.749Z,100.00
2023-04-03T00:57:36.596Z,100.00
2023-04-03T01:00:10.279Z,100.00
2023-04-03T01:02:37.728Z,100.00
2023-04-03T01:05:05.563Z,100.00
2023-04-03T01:07:34.569Z,100.00
2023-04-03T01:10:04.520Z,100.00
2023-04-03T01:12:34.519Z,100.00
2023-04-03T01:15:05.933Z,100.00
2023-04-03T01:17:39.879Z,100.00
2023-04-03T01:20:15.765Z,100.00
2023-04-03T01:22:58.355Z,100.00
2023-04-03T01:25:25.493Z,100.00
2023-04-03T01:27:52.017Z,100.00
2023-04-03T01:30:22.700Z,100.00
2023-04-03T01:32:49.698Z,100.00
2023-04-03T01:35:16.438Z,100.00
2023-04-03T01:37:43.078Z,100.00
2023-04-03T01:40:10.356Z,100.00
2023-04-03T01:42:37.012Z,100.00
2023-04-03T01:45:04.286Z,100.00
2023-04-03T01:47:31.283Z,100.00
2023-04-03T01:49:57.979Z,100.00
2023-04-03T01:52:24.648Z,100.00
2023-04-03T01:54:51.696Z,100.00
2023-04-03T01:57:18.313Z,100.00
2023-04-03T01:59:45.044Z,100.00
2023-04-03T02:02:13.562Z,100.00
2023-04-03T02:04:40.299Z,100.00
2023-04-03T02:07:07.023Z,100.00
2023-04-03T02:09:33.608Z,100.00
2023-04-03T02:12:00.167Z,100.00
2023-04-03T02:14:28.452Z,100.00
2023-04-03T02:16:55.213Z,100.00
2023-04-03T02:19:21.897Z,100.00
2023-04-03T02:21:48.424Z,100.00
2023-04-03T02:24:15.108Z,100.00
2023-04-03T02:26:41.782Z,100.00
2023-04-03T02:29:08.416Z,100.00
2023-04-03T02:31:35.223Z,100.00
2023-04-03T02:34:01.970Z,100.00
2023-04-03T02:36:28.945Z,100.00
2023-04-03T02:38:56.831Z,100.00
2023-04-03T02:41:23.570Z,100.00
2023-04-03T02:43:50.200Z,100.00
2023-04-03T02:46:16.984Z,100.00
2023-04-03T02:48:43.703Z,100.00
2023-04-03T02:51:10.586Z,100.00
2023-04-03T02:53:37.501Z,100.00
2023-04-03T02:56:04.319Z,100.00
2023-04-03T02:58:31.424Z,100.00
2023-04-03T03:00:58.017Z,100.00
2023-04-03T03:03:24.617Z,100.00
2023-04-03T03:05:51.172Z,100.00
2023-04-03T03:08:21.228Z,100.00
2023-04-03T03:10:47.884Z,100.00
2023-04-03T03:13:14.443Z,100.00
2023-04-03T03:15:41.285Z,100.00
2023-04-03T03:18:08.005Z,100.00
2023-04-03T03:20:34.986Z,100.00
2023-04-03T03:23:01.907Z,100.00
2023-04-03T03:25:28.600Z,100.00
2023-04-03T03:27:55.397Z,100.00
2023-04-03T03:30:22.153Z,100.00
2023-04-03T03:32:48.913Z,100.00
2023-04-03T03:35:15.975Z,100.00
2023-04-03T03:37:42.627Z,100.00
2023-04-03T03:40:09.907Z,100.00
2023-04-03T03:42:36.493Z,100.00
2023-04-03T03:45:03.370Z,100.00
2023-04-03T03:47:29.978Z,100.00
2023-04-03T03:49:56.736Z,100.00
2023-04-03T03:52:23.461Z,100.00
2023-04-03T03:54:50.079Z,100.00
2023-04-03T03:57:16.777Z,100.00
2023-04-03T03:59:45.075Z,100.00
2023-04-03T04:02:12.568Z,100.00
2023-04-03T04:04:39.274Z,100.00
2023-04-03T04:07:06.090Z,100.00
2023-04-03T04:09:32.754Z,100.00
2023-04-03T04:11:59.410Z,100.00
2023-04-03T04:14:26.166Z,100.00
2023-04-03T04:16:52.803Z,100.00
2023-04-03T04:19:19.409Z,100.00
2023-04-03T04:21:46.592Z,100.00
2023-04-03T04:24:13.215Z,100.00
2023-04-03T04:26:39.887Z,100.00
2023-04-03T04:29:06.533Z,100.00
2023-04-03T04:31:33.251Z,100.00
2023-04-03T04:34:00.053Z,100.00
2023-04-03T04:36:26.885Z,100.00
2023-04-03T04:38:56.700Z,100.00
2023-04-03T04:41:25.940Z,100.00
2023-04-03T04:43:53.557Z,100.00
2023-04-03T04:46:20.495Z,100.00
2023-04-03T04:48:47.313Z,100.00
2023-04-03T04:51:13.854Z,100.00
2023-04-03T04:53:40.695Z,100.00
2023-04-03T04:56:07.909Z,100.00
2023-04-03T04:58:34.954Z,100.00
2023-04-03T05:01:07.221Z,100.00
2023-04-03T05:03:34.148Z,100.00
2023-04-03T05:06:01.062Z,100.00
2023-04-03T05:08:28.389Z,100.00
2023-04-03T05:10:56.255Z,100.00
2023-04-03T05:13:23.630Z,100.00
2023-04-03T05:15:50.504Z,100.00
2023-04-03T05:18:17.239Z,100.00
2023-04-03T05:20:44.514Z,100.00
2023-04-03T05:23:12.425Z,100.00
2023-04-03T05:25:39.970Z,100.00
2023-04-03T05:28:07.849Z,100.00
2023-04-03T05:30:34.572Z,100.00
2023-04-03T05:33:01.328Z,100.00
2023-04-03T05:35:28.074Z,100.00
2023-04-03T05:37:54.985Z,100.00
2023-04-03T05:40:21.987Z,100.00
2023-04-03T05:42:48.655Z,100.00
2023-04-03T05:45:15.275Z,100.00
2023-04-03T05:47:42.016Z,100.00
2023-04-03T05:50:09.203Z,100.00
2023-04-03T05:52:43.864Z,100.00
2023-04-03T05:55:10.760Z,100.00
2023-04-03T05:57:37.498Z,100.00
2023-04-03T06:00:08.708Z,100.00
2023-04-03T06:02:35.353Z,100.00
2023-04-03T06:05:02.200Z,100.00
2023-04-03T06:07:29.574Z,100.00
2023-04-03T06:09:57.905Z,100.00
2023-04-03T06:12:25.286Z,100.00
2023-04-03T06:14:52.283Z,100.00
2023-04-03T06:17:19.701Z,100.00
2023-04-03T06:19:46.968Z,100.00
2023-04-03T06:22:14.053Z,100.00
2023-04-03T06:24:41.426Z,100.00
2023-04-03T06:27:08.430Z,100.00
2023-04-03T06:29:35.031Z,100.00
2023-04-03T06:32:01.765Z,100.00
2023-04-03T06:34:28.666Z,100.00
2023-04-03T06:36:55.254Z,100.00
2023-04-03T06:39:23.860Z,100.00
2023-04-03T06:41:51.842Z,100.00
2023-04-03T06:44:18.589Z,100.00
2023-04-03T06:46:47.629Z,99.41
2023-04-03T06:49:15.259Z,95.63
2023-04-03T06:51:41.906Z,95.89
2023-04-03T06:54:09.526Z,94.06
2023-04-03T06:56:36.326Z,93.93
2023-04-03T06:59:03.409Z,93.34
2023-04-03T07:01:31.102Z,92.96
2023-04-03T07:03:58.593Z,91.72
2023-04-03T07:06:28.245Z,93.04
2023-04-03T07:08:55.681Z,92.80
2023-04-03T07:11:22.514Z,92.00
2023-04-03T07:13:49.586Z,89.51
2023-04-03T07:16:16.716Z,88.03
2023-04-03T07:18:43.296Z,87.99
2023-04-03T07:21:10.006Z,86.59
2023-04-03T07:23:36.829Z,86.28
2023-04-03T07:26:03.981Z,85.96
2023-04-03T07:28:30.928Z,86.61
2023-04-03T07:31:04.742Z,88.08
2023-04-03T07:33:32.364Z,88.81
2023-04-03T07:35:59.594Z,89.97
2023-04-03T07:38:27.082Z,91.00
2023-04-03T07:40:53.926Z,90.24
2023-04-03T07:43:21.937Z,90.13
2023-04-03T07:45:51.988Z,91.32
2023-04-03T07:48:20.364Z,91.06
2023-04-03T07:50:47.401Z,90.54
2023-04-03T07:53:15.293Z,91.09
2023-04-03T07:55:45.023Z,90.83
2023-04-03T07:58:13.125Z,90.64
2023-04-03T08:00:40.472Z,90.42
2023-04-03T08:03:09.594Z,91.38
2023-04-03T08:05:42.411Z,90.22
2023-04-03T08:08:11.852Z,89.93
2023-04-03T08:10:39.030Z,90.00
2023-04-03T08:13:06.773Z,90.00
2023-04-03T08:15:33.723Z,88.60
2023-04-03T08:18:02.336Z,87.72
2023-04-03T08:20:29.434Z,87.91
2023-04-03T08:22:56.356Z,84.43
2023-04-03T08:25:23.056Z,83.82
2023-04-03T08:27:49.744Z,80.43
2023-04-03T08:30:16.616Z,79.71
2023-04-03T08:32:44.251Z,79.43
2023-04-03T08:35:11.797Z,80.93
2023-04-03T08:37:40.453Z,82.87
2023-04-03T08:40:12.467Z,80.21
2023-04-03T08:43:00.837Z,79.84
2023-04-03T08:45:42.951Z,80.40
2023-04-03T08:48:24.933Z,77.30
2023-04-03T08:50:56.194Z,76.91
2023-04-03T08:53:28.356Z,74.98
2023-04-03T08:55:56.614Z,70.88
2023-04-03T08:58:26.951Z,69.55
2023-04-03T09:01:00.120Z,68.78
2023-04-03T09:03:30.269Z,68.52
2023-04-03T09:06:16.237Z,67.32
2023-04-03T09:09:08.047Z,67.25
2023-04-03T09:11:43.665Z,63.10
2023-04-03T09:14:32.899Z,66.32
2023-04-03T09:17:04.468Z,67.16
2023-04-03T09:19:34.008Z,69.45
2023-04-03T09:22:17.598Z,66.39
2023-04-03T09:24:48.333Z,67.39
2023-04-03T09:27:14.848Z,67.80
2023-04-03T09:29:44.557Z,68.99
2023-04-03T09:32:33.934Z,67.32
2023-04-03T09:35:18.979Z,65.02
2023-04-03T09:37:50.208Z,65.13
2023-04-03T09:40:26.048Z,62.64
2023-04-03T09:43:00.796Z,62.00
2023-04-03T09:45:37.380Z,62.70
2023-04-03T09:48:17.226Z,61.88
2023-04-03T09:51:00.622Z,60.46
2023-04-03T09:53:37.750Z,61.06
2023-04-03T09:56:30.543Z,63.24
2023-04-03T09:59:00.127Z,62.83
2023-04-03T10:01:31.702Z,64.81
2023-04-03T10:04:10.619Z,66.67
2023-04-03T10:06:47.661Z,66.84
2023-04-03T10:09:34.377Z,67.15
2023-04-03T10:12:15.771Z,67.91
2023-04-03T10:14:57.873Z,68.57
2023-04-03T10:17:47.846Z,66.43
2023-04-03T10:20:35.150Z,66.42
2023-04-03T10:23:02.585Z,64.76
2023-04-03T10:25:48.884Z,66.06
2023-04-03T10:28:26.432Z,63.88
2023-04-03T10:31:18.521Z,64.35
2023-04-03T10:33:58.451Z,66.12
2023-04-03T10:36:38.330Z,64.47
2023-04-03T10:39:13.541Z,65.45
2023-04-03T10:42:09.003Z,62.88
2023-04-03T10:45:07.111Z,63.09
2023-04-03T10:48:07.417Z,57.99
2023-04-03T10:50:56.885Z,55.42
2023-04-03T10:53:40.800Z,55.01
2023-04-03T10:56:29.675Z,56.70
2023-04-03T10:59:03.202Z,60.52
2023-04-03T11:01:36.608Z,65.24
2023-04-03T11:04:07.236Z,65.17
2023-04-03T11:06:39.294Z,66.63
2023-04-03T11:09:32.369Z,68.43
2023-04-03T11:12:05.973Z,68.05
2023-04-03T11:14:36.964Z,69.75
2023-04-03T11:17:56.629Z,69.20
2023-04-03T11:20:29.659Z,69.76
2023-04-03T11:23:06.764Z,66.90
2023-04-03T11:25:38.429Z,65.52
2023-04-03T11:28:08.074Z,67.31
2023-04-03T11:30:34.951Z,69.31
2023-04-03T11:33:26.112Z,64.73
2023-04-03T11:35:57.904Z,62.63
2023-04-03T11:38:37.670Z,61.10
2023-04-03T11:41:06.979Z,58.23
2023-04-03T11:43:35.090Z,60.67
2023-04-03T11:46:08.740Z,62.66
2023-04-03T11:48:35.311Z,66.09
2023-04-03T11:51:13.963Z,69.06
2023-04-03T11:53:42.165Z,68.72
2023-04-03T11:56:27.023Z,68.43
2023-04-03T11:59:05.995Z,70.36
2023-04-03T12:01:54.067Z,69.10
2023-04-03T12:04:23.181Z,64.80
2023-04-03T12:06:50.060Z,63.30
2023-04-03T12:09:35.335Z,61.84
2023-04-03T12:12:23.522Z,57.87
2023-04-03T12:14:52.257Z,55.53
2023-04-03T12:17:25.833Z,56.50
2023-04-03T12:19:52.980Z,55.75
2023-04-03T12:22:22.019Z,55.27
2023-04-03T12:24:53.615Z,57.15
2023-04-03T12:27:30.024Z,61.09
2023-04-03T12:30:02.888Z,62.96
2023-04-03T12:32:41.901Z,63.20
2023-04-03T12:35:46.140Z,60.61
2023-04-03T12:38:21.711Z,62.63
2023-04-03T12:41:12.881Z,59.59
2023-04-03T12:44:30.953Z,57.36
2023-04-03T12:47:03.158Z,58.07
2023-04-03T12:49:29.739Z,58.23
2023-04-03T12:51:57.033Z,59.42
2023-04-03T12:54:33.764Z,60.16
2023-04-03T12:57:25.690Z,61.38
2023-04-03T12:59:52.839Z,61.11
2023-04-03T13:02:28.781Z,61.14
2023-04-03T13:04:59.048Z,57.81
2023-04-03T13:07:34.473Z,59.07
2023-04-03T13:10:08.115Z,56.10
2023-04-03T13:12:49.587Z,56.99
2023-04-03T13:15:47.456Z,57.07
2023-04-03T13:18:34.819Z,56.66
2023-04-03T13:21:09.022Z,54.99
2023-04-03T13:23:39.403Z,54.17
2023-04-03T13:26:08.162Z,54.54
2023-04-03T13:28:36.471Z,54.68
2023-04-03T13:31:08.306Z,59.44
2023-04-03T13:33:40.049Z,59.86
2023-04-03T13:36:12.233Z,60.17
2023-04-03T13:38:39.170Z,58.48
2023-04-03T13:41:25.102Z,58.38
2023-04-03T13:43:53.767Z,58.69
2023-04-03T13:46:28.280Z,58.90
2023-04-03T13:48:57.673Z,59.32
2023-04-03T13:51:30.472Z,60.82
2023-04-03T13:54:00.934Z,61.60
2023-04-03T13:56:39.295Z,62.41
2023-04-03T13:59:25.760Z,61.94
2023-04-03T14:02:12.150Z,62.51
2023-04-03T14:04:44.967Z,62.12
2023-04-03T14:07:13.709Z,62.13
2023-04-03T14:09:40.871Z,60.58
2023-04-03T14:12:24.285Z,59.34
2023-04-03T14:14:57.628Z,60.50
2023-04-03T14:17:27.765Z,61.60
2023-04-03T14:19:56.427Z,62.60
2023-04-03T14:22:24.819Z,62.15
2023-04-03T14:24:53.086Z,62.83
2023-04-03T14:27:29.564Z,62.26
2023-04-03T14:29:58.841Z,60.82
2023-04-03T14:32:26.385Z,62.55
2023-04-03T14:34:54.315Z,59.34
2023-04-03T14:37:24.660Z,58.75
2023-04-03T14:39:54.524Z,58.13
2023-04-03T14:42:28.372Z,56.45
2023-04-03T14:44:55.068Z,58.52
2023-04-03T14:47:31.226Z,59.44
2023-04-03T14:50:01.250Z,59.75
2023-04-03T14:52:34.773Z,63.58
2023-04-03T14:55:03.004Z,64.04
2023-04-03T14:57:31.739Z,64.43
2023-04-03T14:59:59.076Z,64.85
2023-04-03T15:02:37.188Z,66.14
2023-04-03T15:05:07.665Z,65.47
2023-04-03T15:07:43.052Z,64.50
2023-04-03T15:10:30.667Z,63.28
2023-04-03T15:12:58.372Z,64.84
2023-04-03T15:15:29.044Z,63.92
2023-04-03T15:17:59.053Z,64.84
2023-04-03T15:20:27.580Z,63.97
2023-04-03T15:22:57.210Z,63.16
2023-04-03T15:25:24.612Z,63.47
2023-04-03T15:27:51.148Z,62.76
2023-04-03T15:30:20.318Z,62.94
2023-04-03T15:32:47.622Z,66.50
2023-04-03T15:35:14.427Z,66.59
2023-04-03T15:37:41.375Z,66.27
2023-04-03T15:40:08.793Z,67.33
2023-04-03T15:42:35.488Z,66.56
2023-04-03T15:45:02.222Z,66.10
2023-04-03T15:47:29.386Z,66.80
2023-04-03T15:49:56.864Z,65.86
2023-04-03T15:52:23.554Z,64.47
2023-04-03T15:54:50.537Z,63.84
2023-04-03T15:57:17.281Z,65.29
2023-04-03T15:59:44.016Z,65.13
2023-04-03T16:02:13.983Z,66.88
2023-04-03T16:04:41.571Z,66.32
2023-04-03T16:07:08.281Z,67.29
2023-04-03T16:09:36.111Z,66.48
2023-04-03T16:12:03.392Z,67.18
2023-04-03T16:14:31.506Z,68.06
2023-04-03T16:17:00.130Z,66.96
2023-04-03T16:19:27.143Z,65.22
2023-04-03T16:21:55.524Z,64.54
2023-04-03T16:24:22.299Z,63.95
2023-04-03T16:26:49.187Z,64.30
2023-04-03T16:29:15.962Z,65.50
2023-04-03T16:31:42.625Z,65.58
2023-04-03T16:34:09.341Z,66.54
2023-04-03T16:36:36.231Z,68.55
2023-04-03T16:39:03.097Z,68.35
2023-04-03T16:41:29.764Z,70.83
2023-04-03T16:43:56.782Z,70.53
2023-04-03T16:46:23.604Z,71.84
2023-04-03T16:48:50.414Z,71.04
2023-04-03T16:51:17.102Z,70.46
2023-04-03T16:53:44.262Z,70.48
2023-04-03T16:56:11.073Z,70.01
2023-04-03T16:58:37.720Z,69.63
2023-04-03T17:01:19.642Z,68.86
2023-04-03T17:03:46.781Z,68.19
2023-04-03T17:06:18.161Z,68.06
2023-04-03T17:08:49.949Z,67.80
2023-04-03T17:11:17.067Z,67.64
2023-04-03T17:13:43.870Z,66.90
2023-04-03T17:16:14.403Z,68.39
2023-04-03T17:18:41.688Z,69.27
2023-04-03T17:21:09.061Z,69.60
2023-04-03T17:23:38.821Z,67.73
2023-04-03T17:26:05.787Z,66.56
2023-04-03T17:28:32.619Z,66.16
2023-04-03T17:31:01.537Z,65.94
2023-04-03T17:33:31.303Z,66.20
2023-04-03T17:36:01.646Z,66.50
2023-04-03T17:38:29.678Z,67.99
2023-04-03T17:41:01.357Z,67.40
2023-04-03T17:43:28.023Z,67.62
2023-04-03T17:46:03.639Z,68.07
2023-04-03T17:48:32.096Z,69.00
2023-04-03T17:50:58.805Z,65.78
2023-04-03T17:53:27.732Z,65.29
2023-04-03T17:55:54.445Z,65.04
2023-04-03T17:58:21.047Z,65.88
2023-04-03T18:00:47.929Z,64.76
2023-04-03T18:03:14.713Z,65.03
2023-04-03T18:05:41.568Z,66.37
2023-04-03T18:08:08.440Z,66.62
2023-04-03T18:10:37.321Z,66.23
2023-04-03T18:13:07.482Z,67.13
2023-04-03T18:15:34.343Z,67.30
2023-04-03T18:18:01.258Z,67.14
2023-04-03T18:20:27.880Z,68.09
2023-04-03T18:22:54.699Z,67.86
2023-04-03T18:25:21.408Z,68.16
2023-04-03T18:27:48.739Z,69.00
2023-04-03T18:30:18.043Z,70.22
2023-04-03T18:32:45.056Z,70.27
2023-04-03T18:35:11.901Z,69.29
2023-04-03T18:37:38.556Z,69.24
2023-04-03T18:40:06.269Z,69.84
2023-04-03T18:42:32.969Z,69.83
2023-04-03T18:45:02.994Z,70.75
2023-04-03T18:47:29.974Z,70.29
2023-04-03T18:49:56.804Z,70.75
2023-04-03T18:52:25.404Z,71.52
2023-04-03T18:54:52.124Z,71.72
2023-04-03T18:57:18.694Z,71.31
2023-04-03T18:59:45.338Z,71.08
2023-04-03T19:02:13.870Z,68.33
2023-04-03T19:04:40.974Z,68.78
2023-04-03T19:07:09.018Z,68.13
2023-04-03T19:09:36.078Z,68.38
2023-04-03T19:12:02.777Z,69.24
2023-04-03T19:14:29.478Z,70.14
2023-04-03T19:16:56.378Z,69.81
2023-04-03T19:19:23.013Z,69.94
2023-04-03T19:21:50.543Z,69.28
2023-04-03T19:24:17.217Z,70.56
2023-04-03T19:26:43.775Z,71.15
2023-04-03T19:29:10.826Z,71.97
2023-04-03T19:31:38.143Z,72.17
2023-04-03T19:34:05.912Z,72.57
2023-04-03T19:36:33.300Z,73.56
2023-04-03T19:38:59.928Z,73.74
2023-04-03T19:41:30.079Z,74.16
2023-04-03T19:43:57.622Z,73.76
2023-04-03T19:46:29.171Z,73.96
2023-04-03T19:48:56.567Z,73.87
2023-04-03T19:51:23.415Z,74.02
2023-04-03T19:53:50.159Z,74.22
2023-04-03T19:56:17.202Z,73.80
2023-04-03T19:58:44.497Z,73.90
2023-04-03T20:01:11.604Z,74.20
2023-04-03T20:03:38.338Z,73.69
2023-04-03T20:06:05.195Z,73.76
2023-04-03T20:08:32.398Z,74.56
2023-04-03T20:10:59.007Z,73.66
2023-04-03T20:13:25.625Z,74.01
2023-04-03T20:15:53.490Z,73.66
2023-04-03T20:18:21.192Z,73.62
2023-04-03T20:20:55.325Z,73.05
2023-04-03T20:23:22.521Z,73.01
2023-04-03T20:26:01.446Z,73.56
2023-04-03T20:28:36.450Z,73.90
2023-04-03T20:31:03.982Z,71.66
2023-04-03T20:33:30.673Z,71.41
2023-04-03T20:35:58.487Z,71.09
2023-04-03T20:38:25.578Z,71.43
2023-04-03T20:40:52.647Z,72.11
2023-04-03T20:43:19.694Z,73.42
2023-04-03T20:45:47.566Z,73.94
2023-04-03T20:48:15.331Z,74.36
2023-04-03T20:50:42.571Z,74.98
2023-04-03T20:53:09.629Z,75.12
2023-04-03T20:55:36.563Z,74.91
2023-04-03T20:58:03.820Z,75.00
2023-04-03T21:00:32.420Z,75.26
2023-04-03T21:03:01.538Z,75.29
2023-04-03T21:05:30.388Z,74.89
2023-04-03T21:08:36.146Z,74.21
2023-04-03T21:11:40.473Z,73.90
2023-04-03T21:14:46.111Z,74.50
2023-04-03T21:17:12.763Z,73.22
2023-04-03T21:19:46.220Z,74.13
2023-04-03T21:22:14.034Z,75.87
2023-04-03T21:24:41.126Z,74.13
2023-04-03T21:27:08.434Z,74.33
2023-04-03T21:29:35.222Z,75.05
2023-04-03T21:32:02.290Z,75.03
2023-04-03T21:34:30.915Z,75.80
2023-04-03T21:37:02.609Z,75.52
2023-04-03T21:39:29.269Z,75.46
2023-04-03T21:41:56.129Z,74.35
2023-04-03T21:44:23.248Z,74.71
2023-04-03T21:46:54.762Z,75.79
2023-04-03T21:49:22.675Z,75.72
2023-04-03T21:51:51.820Z,75.56
2023-04-03T21:54:19.397Z,76.02
2023-04-03T21:56:48.195Z,76.11
2023-04-03T21:59:15.448Z,76.90
2023-04-03T22:01:42.180Z,74.98
2023-04-03T22:04:08.893Z,76.02
2023-04-03T22:06:37.488Z,75.90
2023-04-03T22:09:04.244Z,75.80
2023-04-03T22:11:31.326Z,74.35
2023-04-03T22:13:58.359Z,74.28
2023-04-03T22:16:25.084Z,73.88
2023-04-03T22:18:53.029Z,73.80
2023-04-03T22:21:20.663Z,73.98
2023-04-03T22:23:47.275Z,73.41
2023-04-03T22:26:13.938Z,73.64
2023-04-03T22:28:46.380Z,72.82
2023-04-03T22:31:14.529Z,73.41
2023-04-03T22:33:42.561Z,72.23
2023-04-03T22:36:11.001Z,72.65
2023-04-03T22:38:39.100Z,72.57
2023-04-03T22:41:08.102Z,72.12
2023-04-03T22:43:36.632Z,70.55
2023-04-03T22:46:05.365Z,69.97
2023-04-03T22:48:32.097Z,69.58
2023-04-03T22:51:00.189Z,71.23
2023-04-03T22:53:27.879Z,71.30
2023-04-03T22:55:58.757Z,70.96
2023-04-03T22:58:26.936Z,71.60
2023-04-03T23:01:07.697Z,72.53
2023-04-03T23:03:38.648Z,72.56
2023-04-03T23:06:06.275Z,73.06
2023-04-03T23:08:34.765Z,69.20
2023-04-03T23:11:01.843Z,69.69
2023-04-03T23:13:28.699Z,69.62
2023-04-03T23:16:00.252Z,69.78
2023-04-03T23:18:31.657Z,70.38
2023-04-03T23:21:04.381Z,71.74
2023-04-03T23:23:32.324Z,72.58
2023-04-03T23:26:00.906Z,72.65
2023-04-03T23:28:29.090Z,73.64
2023-04-03T23:31:04.214Z,73.53
2023-04-03T23:33:32.270Z,73.85
2023-04-03T23:36:00.207Z,73.61
2023-04-03T23:38:27.062Z,72.19
2023-04-03T23:40:53.804Z,72.42
2023-04-03T23:43:20.792Z,73.65
2023-04-03T23:45:47.443Z,74.17
2023-04-03T23:48:14.413Z,74.77
2023-04-03T23:50:42.338Z,75.21
2023-04-03T23:53:09.057Z,74.00
2023-04-03T23:55:35.931Z,74.03
2023-04-03T23:58:02.924Z,73.32
